This is the latest recevied weather packets stored in our database for station/object KU4DD. If no packets are shown the sender has not sent any weather packets the latest 10 day(s).
| Time | Temp. | Humidity | Pressure | Rain* | Wind** | Luminosity | Snow |
|---|---|---|---|---|---|---|---|
| 1787656978 | 18.89° C | 78% | 1017.6 hPa | 0 mm | - | 79 W/m² | - |
| 1787656363 | 18.89° C | 78% | 1017.9 hPa | 0 mm | - | 44 W/m² | - |
| 1787655442 | 18.33° C | 79% | 1017.3 hPa | 0 mm | - | 19 W/m² | - |
| 1787652713 | 18.89° C | 76% | 1016.6 hPa | 0 mm | - | 0 W/m² | - |
| 1787650586 | 19.44° C | 74% | 1016.3 hPa | 0 mm | - | 0 W/m² | - |
| 1787649972 | 19.44° C | 74% | 1016.3 hPa | 0 mm | - | 0 W/m² | - |
| 1787649054 | 20° C | 73% | 1015.9 hPa | 0 mm | - | 0 W/m² | - |
| 1787647838 | 20° C | 73% | 1015.9 hPa | 0 mm | - | 0 W/m² | - |
| 1787646014 | 20° C | 75% | 1015.9 hPa | 0 mm | - | 0 W/m² | - |
| 1787644194 | 20° C | 75% | 1015.9 hPa | 0 mm | - | 0 W/m² | - |
| 1787643882 | 20° C | 74% | 1015.9 hPa | 0 mm | - | 0 W/m² | - |
| 1787640850 | 20.56° C | 75% | 1015.6 hPa | 0 mm | - | 0 W/m² | - |
| 1787638424 | 21.67° C | 75% | 1016.3 hPa | 0 mm | - | 0 W/m² | - |
| 1787634484 | 20° C | 88% | 1016.3 hPa | 0 mm | - | 0 W/m² | - |
| 1787625985 | 21.11° C | 85% | 1015.9 hPa | 0 mm | - | 0 W/m² | - |
| 1787625060 | 21.67° C | 84% | 1015.9 hPa | 0 mm | - | 0 W/m² | - |
| 1787621409 | 23.33° C | 80% | 1015.2 hPa | 0 mm | - | 0 W/m² | - |
| 1787619885 | 24.44° C | 77% | 1014.9 hPa | 0 mm | - | 0 W/m² | - |
| 1787618663 | 25° C | 74% | 1014.6 hPa | 0 mm | - | 0 W/m² | - |
| 1787613812 | 29.44° C | 57% | 1013.2 hPa | 0 mm | - | 23 W/m² | - |
| 1787613500 | 30° C | 56% | 1013.2 hPa | 0 mm | - | 26 W/m² | - |
| 1787612883 | 30.56° C | 55% | 1013.2 hPa | 0 mm | - | 32 W/m² | - |
| 1787608919 | 31.67° C | 49% | 1013.2 hPa | 0 mm | - | 62 W/m² | - |
| 1787608001 | 32.22° C | 48% | 1013.2 hPa | 0 mm | - | 134 W/m² | - |
| 1787606162 | 31.67° C | 49% | 1013.2 hPa | 0 mm | - | 141 W/m² | - |
* Rain latest hour (hover to see other rain measurements)
** Current wind speed in m/s (hover to see current wind gust speed)